sensor_id;sensor_type;location;lat;lon;timestamp;pressure;altitude;pressure_sealevel;temperature;humidity
29197;BME280;62796;42.654;23.316;2022-09-13T00:00:39;94378.13;;;19.43;53.75
29197;BME280;62796;42.654;23.316;2022-09-13T00:03:06;94378.78;;;19.40;53.79
29197;BME280;62796;42.654;23.316;2022-09-13T00:05:33;94378.13;;;19.43;53.92
29197;BME280;62796;42.654;23.316;2022-09-13T00:07:59;94381.81;;;19.29;54.37
29197;BME280;62796;42.654;23.316;2022-09-13T00:10:25;94362.13;;;19.08;54.47
29197;BME280;62796;42.654;23.316;2022-09-13T00:12:52;94370.06;;;18.95;55.15
29197;BME280;62796;42.654;23.316;2022-09-13T00:15:19;94369.94;;;18.74;55.75
29197;BME280;62796;42.654;23.316;2022-09-13T00:17:44;94358.44;;;18.56;55.96
29197;BME280;62796;42.654;23.316;2022-09-13T00:20:10;94359.06;;;18.53;56.38
29197;BME280;62796;42.654;23.316;2022-09-13T00:22:35;94366.19;;;18.40;56.78
29197;BME280;62796;42.654;23.316;2022-09-13T00:25:03;94350.56;;;18.25;57.25
29197;BME280;62796;42.654;23.316;2022-09-13T00:27:29;94353.41;;;18.11;57.43
29197;BME280;62796;42.654;23.316;2022-09-13T00:29:54;94353.56;;;18.15;57.46
29197;BME280;62796;42.654;23.316;2022-09-13T00:32:19;94352.78;;;18.06;57.83
29197;BME280;62796;42.654;23.316;2022-09-13T00:34:45;94357.50;;;18.00;58.39
29197;BME280;62796;42.654;23.316;2022-09-13T00:37:10;94352.75;;;17.97;58.41
29197;BME280;62796;42.654;23.316;2022-09-13T00:39:36;94359.41;;;17.99;58.24
29197;BME280;62796;42.654;23.316;2022-09-13T00:42:01;94340.94;;;17.89;58.48
29197;BME280;62796;42.654;23.316;2022-09-13T00:47:20;94345.50;;;17.89;58.45
29197;BME280;62796;42.654;23.316;2022-09-13T00:49:49;94348.66;;;17.91;58.87
29197;BME280;62796;42.654;23.316;2022-09-13T00:52:19;94356.25;;;17.89;58.95
29197;BME280;62796;42.654;23.316;2022-09-13T00:55:24;94346.13;;;17.86;58.96
29197;BME280;62796;42.654;23.316;2022-09-13T00:57:52;94341.97;;;17.79;59.01
29197;BME280;62796;42.654;23.316;2022-09-13T01:00:20;94338.22;;;17.80;58.86
29197;BME280;62796;42.654;23.316;2022-09-13T01:02:50;94343.09;;;17.78;59.02
29197;BME280;62796;42.654;23.316;2022-09-13T01:05:19;94340.41;;;17.78;59.05
29197;BME280;62796;42.654;23.316;2022-09-13T01:07:46;94348.31;;;17.75;59.21
29197;BME280;62796;42.654;23.316;2022-09-13T01:10:12;94350.03;;;17.79;58.89
29197;BME280;62796;42.654;23.316;2022-09-13T01:15:05;94348.00;;;17.76;59.20
29197;BME280;62796;42.654;23.316;2022-09-13T01:17:32;94343.22;;;17.64;59.16
29197;BME280;62796;42.654;23.316;2022-09-13T01:19:59;94347.78;;;17.55;59.55
29197;BME280;62796;42.654;23.316;2022-09-13T01:25:11;94347.81;;;17.64;59.47
29197;BME280;62796;42.654;23.316;2022-09-13T01:31:07;94330.13;;;17.63;59.59
29197;BME280;62796;42.654;23.316;2022-09-13T01:34:06;94324.28;;;17.61;59.43
29197;BME280;62796;42.654;23.316;2022-09-13T01:48:20;94334.84;;;17.57;59.81
29197;BME280;62796;42.654;23.316;2022-09-13T01:50:59;94331.09;;;17.58;59.79
29197;BME280;62796;42.654;23.316;2022-09-13T01:53:54;94331.88;;;17.59;59.84
29197;BME280;62796;42.654;23.316;2022-09-13T01:59:00;94320.47;;;17.44;59.79
29197;BME280;62796;42.654;23.316;2022-09-13T02:01:30;94334.84;;;17.57;59.71
29197;BME280;62796;42.654;23.316;2022-09-13T02:06:37;94326.19;;;17.52;60.05
29197;BME280;62796;42.654;23.316;2022-09-13T02:09:18;94318.41;;;17.41;60.18
29197;BME280;62796;42.654;23.316;2022-09-13T02:11:48;94328.38;;;17.50;60.08
29197;BME280;62796;42.654;23.316;2022-09-13T02:14:21;94324.25;;;17.43;60.01
29197;BME280;62796;42.654;23.316;2022-09-13T02:19:25;94321.88;;;17.42;60.08
29197;BME280;62796;42.654;23.316;2022-09-13T02:21:59;94319.66;;;17.44;60.10
29197;BME280;62796;42.654;23.316;2022-09-13T02:24:33;94325.53;;;17.46;60.06
29197;BME280;62796;42.654;23.316;2022-09-13T02:27:08;94319.84;;;17.39;59.89
29197;BME280;62796;42.654;23.316;2022-09-13T02:29:36;94324.56;;;17.42;59.98
29197;BME280;62796;42.654;23.316;2022-09-13T02:32:15;94324.09;;;17.40;60.17
29197;BME280;62796;42.654;23.316;2022-09-13T02:34:47;94327.06;;;17.38;60.18
29197;BME280;62796;42.654;23.316;2022-09-13T02:37:15;94324.53;;;17.33;60.28
29197;BME280;62796;42.654;23.316;2022-09-13T02:39:46;94330.56;;;17.39;60.06
29197;BME280;62796;42.654;23.316;2022-09-13T02:42:16;94333.56;;;17.37;60.18
29197;BME280;62796;42.654;23.316;2022-09-13T02:44:45;94337.94;;;17.33;60.16
29197;BME280;62796;42.654;23.316;2022-09-13T02:59:02;94331.59;;;17.20;60.55
29197;BME280;62796;42.654;23.316;2022-09-13T03:01:30;94332.22;;;17.17;60.70
29197;BME280;62796;42.654;23.316;2022-09-13T03:03:56;94335.06;;;17.21;60.63
29197;BME280;62796;42.654;23.316;2022-09-13T03:06:26;94336.19;;;17.20;60.68
29197;BME280;62796;42.654;23.316;2022-09-13T03:08:53;94338.88;;;17.20;60.56
29197;BME280;62796;42.654;23.316;2022-09-13T03:17:13;94336.50;;;17.18;60.25
29197;BME280;62796;42.654;23.316;2022-09-13T03:31:02;94332.72;;;17.28;59.96
29197;BME280;62796;42.654;23.316;2022-09-13T03:33:55;94330.22;;;17.23;60.01
29197;BME280;62796;42.654;23.316;2022-09-13T03:36:28;94336.66;;;17.22;59.92
29197;BME280;62796;42.654;23.316;2022-09-13T03:41:31;94341.56;;;17.20;59.85
29197;BME280;62796;42.654;23.316;2022-09-13T03:44:02;94344.22;;;17.20;59.85
29197;BME280;62796;42.654;23.316;2022-09-13T03:46:45;94336.19;;;17.20;59.79
29197;BME280;62796;42.654;23.316;2022-09-13T03:49:14;94331.56;;;17.12;59.71
29197;BME280;62796;42.654;23.316;2022-09-13T03:51:43;94324.78;;;17.05;59.54
29197;BME280;62796;42.654;23.316;2022-09-13T03:54:16;94337.09;;;17.15;59.24
29197;BME280;62796;42.654;23.316;2022-09-13T03:56:42;94335.22;;;17.16;59.32
29197;BME280;62796;42.654;23.316;2022-09-13T03:59:08;94334.72;;;17.14;59.04
29197;BME280;62796;42.654;23.316;2022-09-13T04:01:33;94317.84;;;17.04;58.90
29197;BME280;62796;42.654;23.316;2022-09-13T04:03:59;94336.31;;;17.15;58.67
29197;BME280;62796;42.654;23.316;2022-09-13T04:06:24;94340.72;;;17.11;58.71
29197;BME280;62796;42.654;23.316;2022-09-13T04:08:50;94342.78;;;17.14;58.68
29197;BME280;62796;42.654;23.316;2022-09-13T04:11:15;94344.03;;;17.07;58.76
29197;BME280;62796;42.654;23.316;2022-09-13T04:13:41;94343.41;;;17.11;58.65
29197;BME280;62796;42.654;23.316;2022-09-13T04:16:07;94336.75;;;17.08;58.67
29197;BME280;62796;42.654;23.316;2022-09-13T04:18:33;94335.97;;;17.07;58.62
29197;BME280;62796;42.654;23.316;2022-09-13T04:21:00;94330.31;;;17.09;58.40
29197;BME280;62796;42.654;23.316;2022-09-13T04:23:27;94341.38;;;17.16;58.10
29197;BME280;62796;42.654;23.316;2022-09-13T04:25:53;94328.28;;;17.15;58.37
29197;BME280;62796;42.654;23.316;2022-09-13T04:28:20;94348.00;;;17.19;58.29
29197;BME280;62796;42.654;23.316;2022-09-13T04:30:47;94344.69;;;17.22;58.39
29197;BME280;62796;42.654;23.316;2022-09-13T04:33:14;94337.75;;;17.21;58.02
29197;BME280;62796;42.654;23.316;2022-09-13T04:35:40;94347.25;;;17.27;58.01
29197;BME280;62796;42.654;23.316;2022-09-13T04:38:06;94352.16;;;17.34;57.82
29197;BME280;62796;42.654;23.316;2022-09-13T04:40:31;94359.41;;;17.33;57.75
29197;BME280;62796;42.654;23.316;2022-09-13T04:42:56;94361.81;;;17.43;57.83
29197;BME280;62796;42.654;23.316;2022-09-13T04:45:22;94355.81;;;17.46;57.50
29197;BME280;62796;42.654;23.316;2022-09-13T04:47:52;94346.16;;;17.37;57.28
29197;BME280;62796;42.654;23.316;2022-09-13T04:50:19;94347.44;;;17.39;57.46
29197;BME280;62796;42.654;23.316;2022-09-13T04:52:45;94359.16;;;17.52;57.30
29197;BME280;62796;42.654;23.316;2022-09-13T04:55:11;94352.84;;;17.48;56.98
29197;BME280;62796;42.654;23.316;2022-09-13T04:57:37;94356.47;;;17.52;57.17
29197;BME280;62796;42.654;23.316;2022-09-13T05:00:03;94367.34;;;17.56;57.17
29197;BME280;62796;42.654;23.316;2022-09-13T05:02:29;94361.69;;;17.66;57.21
29197;BME280;62796;42.654;23.316;2022-09-13T05:04:55;94362.19;;;17.77;56.59
29197;BME280;62796;42.654;23.316;2022-09-13T05:07:20;94367.28;;;17.87;56.40
29197;BME280;62796;42.654;23.316;2022-09-13T05:09:46;94366.97;;;17.89;56.51
29197;BME280;62796;42.654;23.316;2022-09-13T05:12:11;94367.16;;;18.01;56.28
29197;BME280;62796;42.654;23.316;2022-09-13T05:14:37;94370.47;;;18.15;55.70
29197;BME280;62796;42.654;23.316;2022-09-13T05:17:02;94366.34;;;18.27;55.38
29197;BME280;62796;42.654;23.316;2022-09-13T05:19:28;94353.25;;;18.34;55.13
29197;BME280;62796;42.654;23.316;2022-09-13T05:21:53;94363.50;;;18.58;54.61
29197;BME280;62796;42.654;23.316;2022-09-13T05:24:18;94363.78;;;18.74;54.60
29197;BME280;62796;42.654;23.316;2022-09-13T05:26:44;94359.66;;;18.85;54.27
29197;BME280;62796;42.654;23.316;2022-09-13T05:29:09;94362.78;;;18.96;53.60
29197;BME280;62796;42.654;23.316;2022-09-13T05:31:37;94363.22;;;19.07;52.95
29197;BME280;62796;42.654;23.316;2022-09-13T05:34:06;94364.16;;;19.20;52.46
29197;BME280;62796;42.654;23.316;2022-09-13T05:36:32;94359.66;;;19.32;52.10
29197;BME280;62796;42.654;23.316;2022-09-13T05:38:58;94370.16;;;19.55;50.94
29197;BME280;62796;42.654;23.316;2022-09-13T05:41:25;94368.88;;;19.23;51.79
29197;BME280;62796;42.654;23.316;2022-09-13T05:43:50;94359.66;;;19.32;51.54
29197;BME280;62796;42.654;23.316;2022-09-13T05:46:17;94368.56;;;19.54;50.89
29197;BME280;62796;42.654;23.316;2022-09-13T05:48:44;94368.78;;;19.79;50.08
29197;BME280;62796;42.654;23.316;2022-09-13T05:51:11;94366.69;;;19.84;49.78
29197;BME280;62796;42.654;23.316;2022-09-13T05:53:38;94374.44;;;19.86;49.77
29197;BME280;62796;42.654;23.316;2022-09-13T05:56:06;94372.75;;;20.02;49.83
29197;BME280;62796;42.654;23.316;2022-09-13T05:58:32;94374.06;;;19.96;49.34
29197;BME280;62796;42.654;23.316;2022-09-13T06:00:59;94372.34;;;20.13;49.50
29197;BME280;62796;42.654;23.316;2022-09-13T06:03:24;94370.53;;;20.04;49.28
29197;BME280;62796;42.654;23.316;2022-09-13T06:05:54;94360.53;;;20.05;49.43
29197;BME280;62796;42.654;23.316;2022-09-13T06:08:19;94365.66;;;20.19;49.30
29197;BME280;62796;42.654;23.316;2022-09-13T06:10:53;94373.31;;;20.29;49.10
29197;BME280;62796;42.654;23.316;2022-09-13T06:13:19;94373.38;;;20.41;48.43
29197;BME280;62796;42.654;23.316;2022-09-13T06:15:44;94374.66;;;20.44;48.41
29197;BME280;62796;42.654;23.316;2022-09-13T06:18:10;94380.88;;;20.57;48.09
29197;BME280;62796;42.654;23.316;2022-09-13T06:20:35;94372.84;;;20.69;47.69
29197;BME280;62796;42.654;23.316;2022-09-13T06:23:01;94385.72;;;20.84;47.50
29197;BME280;62796;42.654;23.316;2022-09-13T06:25:26;94382.84;;;21.02;47.38
29197;BME280;62796;42.654;23.316;2022-09-13T06:27:52;94384.66;;;21.22;47.22
29197;BME280;62796;42.654;23.316;2022-09-13T06:30:17;94378.63;;;21.38;46.44
29197;BME280;62796;42.654;23.316;2022-09-13T06:32:43;94375.25;;;21.41;46.87
29197;BME280;62796;42.654;23.316;2022-09-13T06:35:09;94377.50;;;21.39;46.55
29197;BME280;62796;42.654;23.316;2022-09-13T06:37:34;94388.41;;;21.42;46.82
29197;BME280;62796;42.654;23.316;2022-09-13T06:40:00;94380.78;;;21.45;46.81
29197;BME280;62796;42.654;23.316;2022-09-13T06:42:25;94401.47;;;21.65;46.70
29197;BME280;62796;42.654;23.316;2022-09-13T06:44:50;94387.41;;;21.84;46.42
29197;BME280;62796;42.654;23.316;2022-09-13T06:47:16;94397.97;;;22.14;46.17
29197;BME280;62796;42.654;23.316;2022-09-13T06:49:41;94403.34;;;22.26;45.50
29197;BME280;62796;42.654;23.316;2022-09-13T06:52:07;94416.06;;;22.38;44.93
29197;BME280;62796;42.654;23.316;2022-09-13T06:54:32;94402.06;;;22.48;44.50
29197;BME280;62796;42.654;23.316;2022-09-13T06:56:57;94397.97;;;22.67;44.36
29197;BME280;62796;42.654;23.316;2022-09-13T06:59:23;94396.81;;;22.68;44.53
29197;BME280;62796;42.654;23.316;2022-09-13T07:01:48;94404.97;;;22.84;44.41
29197;BME280;62796;42.654;23.316;2022-09-13T07:04:16;94405.56;;;23.05;43.89
29197;BME280;62796;42.654;23.316;2022-09-13T07:06:45;94407.94;;;23.23;43.73
29197;BME280;62796;42.654;23.316;2022-09-13T07:09:18;94390.59;;;23.24;43.43
29197;BME280;62796;42.654;23.316;2022-09-13T07:11:46;94405.34;;;23.42;42.95
29197;BME280;62796;42.654;23.316;2022-09-13T07:14:13;94398.72;;;23.56;42.32
29197;BME280;62796;42.654;23.316;2022-09-13T07:16:39;94414.63;;;23.57;41.97
29197;BME280;62796;42.654;23.316;2022-09-13T07:19:09;94410.06;;;23.61;42.11
29197;BME280;62796;42.654;23.316;2022-09-13T07:21:36;94408.41;;;23.57;41.51
29197;BME280;62796;42.654;23.316;2022-09-13T07:24:02;94411.22;;;23.76;41.54
29197;BME280;62796;42.654;23.316;2022-09-13T07:26:28;94413.66;;;23.81;41.47
29197;BME280;62796;42.654;23.316;2022-09-13T07:28:56;94419.06;;;23.97;41.47
29197;BME280;62796;42.654;23.316;2022-09-13T07:31:27;94405.28;;;24.22;40.86
29197;BME280;62796;42.654;23.316;2022-09-13T07:34:04;94425.38;;;24.37;40.27
29197;BME280;62796;42.654;23.316;2022-09-13T07:36:32;94427.44;;;24.43;39.49
29197;BME280;62796;42.654;23.316;2022-09-13T07:38:58;94418.84;;;24.57;39.05
29197;BME280;62796;42.654;23.316;2022-09-13T07:41:25;94414.34;;;24.65;39.00
29197;BME280;62796;42.654;23.316;2022-09-13T07:43:51;94423.91;;;24.59;38.84
29197;BME280;62796;42.654;23.316;2022-09-13T07:46:19;94421.84;;;24.72;38.83
29197;BME280;62796;42.654;23.316;2022-09-13T07:48:46;94412.34;;;24.62;38.66
29197;BME280;62796;42.654;23.316;2022-09-13T07:51:15;94424.78;;;24.82;38.75
29197;BME280;62796;42.654;23.316;2022-09-13T07:53:42;94417.81;;;25.05;38.19
29197;BME280;62796;42.654;23.316;2022-09-13T07:56:14;94428.81;;;25.31;38.07
29197;BME280;62796;42.654;23.316;2022-09-13T07:58:41;94432.00;;;25.60;37.31
29197;BME280;62796;42.654;23.316;2022-09-13T08:03:37;94416.63;;;25.68;35.61
29197;BME280;62796;42.654;23.316;2022-09-13T08:06:04;94431.34;;;25.67;36.07
29197;BME280;62796;42.654;23.316;2022-09-13T08:08:30;94425.22;;;25.70;36.77
29197;BME280;62796;42.654;23.316;2022-09-13T08:10:56;94427.16;;;25.69;36.53
29197;BME280;62796;42.654;23.316;2022-09-13T08:13:22;94426.63;;;25.87;35.85
29197;BME280;62796;42.654;23.316;2022-09-13T08:15:48;94413.72;;;26.03;35.23
29197;BME280;62796;42.654;23.316;2022-09-13T08:18:17;94430.69;;;26.23;35.37
29197;BME280;62796;42.654;23.316;2022-09-13T08:20:42;94432.84;;;26.37;34.10
29197;BME280;62796;42.654;23.316;2022-09-13T08:23:09;94430.13;;;26.37;34.16
29197;BME280;62796;42.654;23.316;2022-09-13T08:25:35;94430.03;;;26.30;33.66
29197;BME280;62796;42.654;23.316;2022-09-13T08:28:05;94419.22;;;25.84;34.47
29197;BME280;62796;42.654;23.316;2022-09-13T08:30:33;94423.53;;;26.11;34.17
29197;BME280;62796;42.654;23.316;2022-09-13T08:33:00;94424.72;;;26.41;33.88
29197;BME280;62796;42.654;23.316;2022-09-13T08:35:27;94417.44;;;26.48;33.46
29197;BME280;62796;42.654;23.316;2022-09-13T08:37:53;94422.78;;;26.41;33.65
29197;BME280;62796;42.654;23.316;2022-09-13T08:40:20;94417.53;;;26.56;33.50
29197;BME280;62796;42.654;23.316;2022-09-13T08:45:38;94415.88;;;26.47;32.38
29197;BME280;62796;42.654;23.316;2022-09-13T08:48:11;94408.41;;;26.41;31.14
29197;BME280;62796;42.654;23.316;2022-09-13T08:50:39;94410.38;;;26.13;32.08
29197;BME280;62796;42.654;23.316;2022-09-13T08:55:57;94411.72;;;25.77;33.35
29197;BME280;62796;42.654;23.316;2022-09-13T08:58:38;94404.06;;;25.60;32.91
29197;BME280;62796;42.654;23.316;2022-09-13T09:01:49;94409.91;;;25.85;33.07
29197;BME280;62796;42.654;23.316;2022-09-13T09:07:20;94408.00;;;25.62;33.13
29197;BME280;62796;42.654;23.316;2022-09-13T09:09:59;94410.47;;;25.71;32.91
29197;BME280;62796;42.654;23.316;2022-09-13T09:20:30;94411.88;;;25.38;33.27
29197;BME280;62796;42.654;23.316;2022-09-13T09:23:05;94417.25;;;25.15;33.74
29197;BME280;62796;42.654;23.316;2022-09-13T09:25:33;94420.84;;;24.99;33.62
29197;BME280;62796;42.654;23.316;2022-09-13T09:27:58;94404.63;;;25.03;33.99
29197;BME280;62796;42.654;23.316;2022-09-13T09:30:35;94401.25;;;25.10;34.08
29197;BME280;62796;42.654;23.316;2022-09-13T09:35:42;94399.59;;;25.25;33.47
29197;BME280;62796;42.654;23.316;2022-09-13T09:40:59;94379.28;;;25.38;33.13
29197;BME280;62796;42.654;23.316;2022-09-13T09:43:34;94384.00;;;24.98;33.64
29197;BME280;62796;42.654;23.316;2022-09-13T09:46:02;94386.22;;;25.16;33.24
29197;BME280;62796;42.654;23.316;2022-09-13T09:48:38;94385.44;;;25.35;33.11
29197;BME280;62796;42.654;23.316;2022-09-13T09:51:07;94383.13;;;25.60;33.27
29197;BME280;62796;42.654;23.316;2022-09-13T09:53:46;94382.81;;;25.65;32.54
29197;BME280;62796;42.654;23.316;2022-09-13T09:56:29;94369.53;;;25.60;32.57
29197;BME280;62796;42.654;23.316;2022-09-13T09:58:54;94376.91;;;25.60;33.21
29197;BME280;62796;42.654;23.316;2022-09-13T10:01:26;94375.47;;;25.92;33.24
29197;BME280;62796;42.654;23.316;2022-09-13T10:06:24;94370.53;;;26.25;32.66
29197;BME280;62796;42.654;23.316;2022-09-13T10:09:05;94375.88;;;26.48;32.42
29197;BME280;62796;42.654;23.316;2022-09-13T10:12:03;94367.63;;;26.41;32.31
29197;BME280;62796;42.654;23.316;2022-09-13T10:14:42;94356.03;;;26.47;32.43
29197;BME280;62796;42.654;23.316;2022-09-13T10:17:24;94365.41;;;26.50;32.26
29197;BME280;62796;42.654;23.316;2022-09-13T10:19:51;94358.72;;;26.74;31.20
29197;BME280;62796;42.654;23.316;2022-09-13T10:22:18;94357.09;;;27.07;30.57
29197;BME280;62796;42.654;23.316;2022-09-13T10:24:44;94355.09;;;27.38;30.27
29197;BME280;62796;42.654;23.316;2022-09-13T10:27:41;94353.56;;;27.44;30.19
29197;BME280;62796;42.654;23.316;2022-09-13T10:30:36;94345.06;;;27.49;29.99
29197;BME280;62796;42.654;23.316;2022-09-13T10:33:03;94341.66;;;27.59;29.82
29197;BME280;62796;42.654;23.316;2022-09-13T10:35:30;94325.03;;;27.79;29.08
29197;BME280;62796;42.654;23.316;2022-09-13T10:37:56;94341.69;;;27.67;29.26
29197;BME280;62796;42.654;23.316;2022-09-13T10:40:28;94347.28;;;27.88;29.52
29197;BME280;62796;42.654;23.316;2022-09-13T10:42:56;94334.38;;;27.78;29.22
29197;BME280;62796;42.654;23.316;2022-09-13T10:45:24;94327.22;;;28.11;28.66
29197;BME280;62796;42.654;23.316;2022-09-13T11:12:55;94321.88;;;27.70;29.68
29197;BME280;62796;42.654;23.316;2022-09-13T11:15:58;94318.25;;;28.10;29.05
29197;BME280;62796;42.654;23.316;2022-09-13T11:24:13;94319.41;;;27.13;29.67
29197;BME280;62796;42.654;23.316;2022-09-13T11:29:32;94309.28;;;27.51;29.39
29197;BME280;62796;42.654;23.316;2022-09-13T11:41:16;94301.47;;;29.28;26.14
29197;BME280;62796;42.654;23.316;2022-09-13T11:43:50;94292.50;;;29.35;26.82
29197;BME280;62796;42.654;23.316;2022-09-13T11:46:29;94299.50;;;29.79;26.08
29197;BME280;62796;42.654;23.316;2022-09-13T11:57:15;94292.59;;;30.63;24.89
29197;BME280;62796;42.654;23.316;2022-09-13T11:59:50;94287.03;;;30.81;25.40
29197;BME280;62796;42.654;23.316;2022-09-13T12:05:23;94284.56;;;31.08;24.81
29197;BME280;62796;42.654;23.316;2022-09-13T12:08:02;94281.38;;;31.17;24.61
29197;BME280;62796;42.654;23.316;2022-09-13T12:13:09;94285.59;;;31.25;24.82
29197;BME280;62796;42.654;23.316;2022-09-13T12:15:42;94286.91;;;31.10;25.11
29197;BME280;62796;42.654;23.316;2022-09-13T12:18:28;94281.56;;;30.77;25.36
29197;BME280;62796;42.654;23.316;2022-09-13T12:20:59;94290.13;;;30.90;25.61
29197;BME280;62796;42.654;23.316;2022-09-13T12:26:08;94270.47;;;31.10;24.93
29197;BME280;62796;42.654;23.316;2022-09-13T12:28:43;94287.84;;;31.37;24.42
29197;BME280;62796;42.654;23.316;2022-09-13T12:31:15;94279.16;;;30.97;23.71
29197;BME280;62796;42.654;23.316;2022-09-13T12:33:44;94283.06;;;30.89;24.44
29197;BME280;62796;42.654;23.316;2022-09-13T13:03:33;94279.09;;;31.04;25.01
29197;BME280;62796;42.654;23.316;2022-09-13T13:06:15;94270.59;;;30.81;24.92
29197;BME280;62796;42.654;23.316;2022-09-13T13:08:52;94269.00;;;30.94;25.10
29197;BME280;62796;42.654;23.316;2022-09-13T13:11:22;94270.50;;;31.02;24.87
29197;BME280;62796;42.654;23.316;2022-09-13T13:14:00;94271.72;;;30.94;24.62
29197;BME280;62796;42.654;23.316;2022-09-13T13:16:38;94286.19;;;30.91;24.98
29197;BME280;62796;42.654;23.316;2022-09-13T13:19:29;94285.00;;;30.99;25.27
29197;BME280;62796;42.654;23.316;2022-09-13T13:25:29;94290.00;;;30.38;26.22
29197;BME280;62796;42.654;23.316;2022-09-13T13:27:55;94282.28;;;30.00;26.17
29197;BME280;62796;42.654;23.316;2022-09-13T13:30:40;94274.91;;;29.58;26.74
29197;BME280;62796;42.654;23.316;2022-09-13T13:33:16;94279.19;;;29.12;27.25
29197;BME280;62796;42.654;23.316;2022-09-13T13:35:43;94284.25;;;29.13;27.88
29197;BME280;62796;42.654;23.316;2022-09-13T13:38:41;94277.25;;;29.27;27.28
29197;BME280;62796;42.654;23.316;2022-09-13T13:46:50;94290.72;;;28.40;28.55
29197;BME280;62796;42.654;23.316;2022-09-13T13:49:49;94291.81;;;28.25;29.02
29197;BME280;62796;42.654;23.316;2022-09-13T13:57:23;94295.53;;;26.92;30.28
29197;BME280;62796;42.654;23.316;2022-09-13T13:59:54;94293.75;;;26.69;30.82
29197;BME280;62796;42.654;23.316;2022-09-13T14:02:28;94294.56;;;26.39;31.72
29197;BME280;62796;42.654;23.316;2022-09-13T14:21:21;94303.53;;;24.87;33.13
29197;BME280;62796;42.654;23.316;2022-09-13T14:23:47;94290.84;;;24.71;33.75
29197;BME280;62796;42.654;23.316;2022-09-13T14:26:12;94289.31;;;24.70;33.88
29197;BME280;62796;42.654;23.316;2022-09-13T14:28:38;94300.56;;;24.72;33.89
29197;BME280;62796;42.654;23.316;2022-09-13T14:31:04;94300.88;;;24.28;34.22
29197;BME280;62796;42.654;23.316;2022-09-13T14:33:35;94299.38;;;24.11;34.55
29197;BME280;62796;42.654;23.316;2022-09-13T14:36:16;94311.56;;;24.21;34.84
29197;BME280;62796;42.654;23.316;2022-09-13T14:39:07;94291.66;;;24.13;34.44
29197;BME280;62796;42.654;23.316;2022-09-13T14:41:36;94302.78;;;24.08;35.02
29197;BME280;62796;42.654;23.316;2022-09-13T14:44:19;94303.00;;;23.99;34.80
29197;BME280;62796;42.654;23.316;2022-09-13T14:46:47;94302.63;;;24.01;35.07
29197;BME280;62796;42.654;23.316;2022-09-13T14:49:23;94301.06;;;24.00;34.52
29197;BME280;62796;42.654;23.316;2022-09-13T14:52:14;94295.50;;;23.93;34.51
29197;BME280;62796;42.654;23.316;2022-09-13T14:54:44;94308.28;;;23.92;34.66
29197;BME280;62796;42.654;23.316;2022-09-13T14:57:26;94292.38;;;23.75;34.59
29197;BME280;62796;42.654;23.316;2022-09-13T14:59:56;94303.84;;;23.68;34.23
29197;BME280;62796;42.654;23.316;2022-09-13T15:02:26;94304.50;;;23.45;34.33
29197;BME280;62796;42.654;23.316;2022-09-13T15:04:56;94311.41;;;23.43;34.80
29197;BME280;62796;42.654;23.316;2022-09-13T15:07:27;94305.19;;;23.42;34.77
29197;BME280;62796;42.654;23.316;2022-09-13T15:10:05;94312.53;;;23.42;34.63
29197;BME280;62796;42.654;23.316;2022-09-13T15:12:31;94317.94;;;23.26;34.53
29197;BME280;62796;42.654;23.316;2022-09-13T15:15:23;94316.41;;;23.25;35.28
29197;BME280;62796;42.654;23.316;2022-09-13T15:20:28;94301.38;;;23.11;35.69
29197;BME280;62796;42.654;23.316;2022-09-13T15:22:54;94308.53;;;23.20;35.73
29197;BME280;62796;42.654;23.316;2022-09-13T15:25:26;94307.47;;;23.24;35.36
29197;BME280;62796;42.654;23.316;2022-09-13T15:27:53;94311.34;;;23.07;35.21
29197;BME280;62796;42.654;23.316;2022-09-13T15:30:28;94311.03;;;22.97;36.29
29197;BME280;62796;42.654;23.316;2022-09-13T15:35:42;94275.16;;;22.84;35.70
29197;BME280;62796;42.654;23.316;2022-09-13T15:38:27;94303.00;;;23.00;35.76
29197;BME280;62796;42.654;23.316;2022-09-13T15:41:18;94311.13;;;23.00;35.91
29197;BME280;62796;42.654;23.316;2022-09-13T15:43:43;94306.66;;;22.92;36.13
29197;BME280;62796;42.654;23.316;2022-09-13T15:46:14;94317.19;;;22.65;36.53
29197;BME280;62796;42.654;23.316;2022-09-13T15:48:45;94311.50;;;22.54;37.24
29197;BME280;62796;42.654;23.316;2022-09-13T15:51:14;94311.97;;;22.44;37.34
29197;BME280;62796;42.654;23.316;2022-09-13T15:53:43;94317.09;;;22.62;37.48
29197;BME280;62796;42.654;23.316;2022-09-13T15:56:16;94318.97;;;22.73;37.57
29197;BME280;62796;42.654;23.316;2022-09-13T15:58:42;94323.66;;;22.77;37.08
29197;BME280;62796;42.654;23.316;2022-09-13T16:01:11;94335.28;;;22.77;36.23
29197;BME280;62796;42.654;23.316;2022-09-13T16:03:36;94339.50;;;22.62;36.70
29197;BME280;62796;42.654;23.316;2022-09-13T16:06:03;94333.72;;;22.48;36.93
29197;BME280;62796;42.654;23.316;2022-09-13T16:08:29;94326.44;;;22.36;37.56
29197;BME280;62796;42.654;23.316;2022-09-13T16:10:55;94336.56;;;22.39;37.75
29197;BME280;62796;42.654;23.316;2022-09-13T16:13:20;94334.63;;;22.40;37.81
29197;BME280;62796;42.654;23.316;2022-09-13T16:15:45;94342.41;;;22.41;37.93
29197;BME280;62796;42.654;23.316;2022-09-13T16:18:12;94336.91;;;22.37;37.91
29197;BME280;62796;42.654;23.316;2022-09-13T16:20:38;94336.22;;;22.41;38.47
29197;BME280;62796;42.654;23.316;2022-09-13T16:23:04;94327.91;;;22.33;37.97
29197;BME280;62796;42.654;23.316;2022-09-13T16:25:29;94339.59;;;22.37;38.40
29197;BME280;62796;42.654;23.316;2022-09-13T16:27:55;94342.22;;;22.22;38.26
29197;BME280;62796;42.654;23.316;2022-09-13T16:30:21;94332.91;;;22.07;38.46
29197;BME280;62796;42.654;23.316;2022-09-13T16:32:47;94336.31;;;22.04;38.72
29197;BME280;62796;42.654;23.316;2022-09-13T16:35:13;94320.59;;;21.69;38.69
29197;BME280;62796;42.654;23.316;2022-09-13T16:37:40;94355.34;;;21.83;38.83